createdAt,value
2023-04-30T00:01:56.421Z,19.48
2023-04-30T00:04:23.102Z,20.48
2023-04-30T00:06:49.747Z,19.83
2023-04-30T00:09:16.286Z,26.25
2023-04-30T00:11:42.760Z,27.10
2023-04-30T00:14:09.279Z,26.60
2023-04-30T00:16:35.789Z,31.45
2023-04-30T00:19:02.293Z,29.10
2023-04-30T00:21:28.761Z,31.17
2023-04-30T00:23:55.280Z,30.00
2023-04-30T00:26:21.780Z,29.95
2023-04-30T00:28:48.381Z,28.02
2023-04-30T00:31:15.252Z,29.90
2023-04-30T00:33:42.340Z,24.67
2023-04-30T00:36:08.954Z,26.13
2023-04-30T00:38:35.467Z,26.67
2023-04-30T00:41:02.378Z,25.92
2023-04-30T00:43:28.902Z,30.60
2023-04-30T00:45:55.442Z,27.40
2023-04-30T00:48:22.137Z,25.08
2023-04-30T00:50:48.697Z,26.52
2023-04-30T00:53:15.339Z,26.77
2023-04-30T00:55:43.443Z,26.45
2023-04-30T00:58:10.224Z,26.00
2023-04-30T01:00:36.751Z,26.45
2023-04-30T01:03:03.880Z,25.40
2023-04-30T01:05:30.514Z,27.23
2023-04-30T01:07:57.611Z,31.70
2023-04-30T01:10:30.378Z,28.90
2023-04-30T01:13:06.359Z,24.98
2023-04-30T01:15:45.640Z,24.60
2023-04-30T01:18:14.966Z,25.70
2023-04-30T01:20:48.579Z,26.05
2023-04-30T01:23:39.277Z,23.27
2023-04-30T01:26:11.809Z,20.13
2023-04-30T01:28:39.598Z,17.70
2023-04-30T01:31:18.098Z,19.50
2023-04-30T01:33:44.692Z,21.65
2023-04-30T01:36:32.489Z,21.67
2023-04-30T01:39:02.091Z,21.35
2023-04-30T01:41:40.096Z,24.75
2023-04-30T01:44:31.587Z,22.92
2023-04-30T01:47:18.084Z,21.63
2023-04-30T01:49:59.625Z,22.23
2023-04-30T01:52:39.387Z,23.75
2023-04-30T01:55:11.597Z,19.52
2023-04-30T01:57:43.723Z,18.65
2023-04-30T02:00:10.754Z,21.85
2023-04-30T02:02:37.518Z,18.95
2023-04-30T02:05:04.353Z,21.23
2023-04-30T02:07:38.122Z,20.75
2023-04-30T02:10:06.107Z,22.45
2023-04-30T02:12:32.636Z,21.00
2023-04-30T02:14:59.228Z,21.98
2023-04-30T02:17:25.733Z,21.55
2023-04-30T02:19:52.525Z,22.27
2023-04-30T02:22:19.221Z,21.23
2023-04-30T02:24:45.846Z,23.27
2023-04-30T02:27:13.346Z,24.15
2023-04-30T02:29:39.883Z,21.40
2023-04-30T02:32:06.399Z,18.85
2023-04-30T02:34:32.860Z,20.65
2023-04-30T02:36:59.321Z,21.02
2023-04-30T02:39:25.919Z,22.35
2023-04-30T02:41:52.435Z,21.55
2023-04-30T02:44:18.916Z,25.10
2023-04-30T02:46:45.495Z,24.10
2023-04-30T02:49:12.026Z,26.80
2023-04-30T02:51:38.591Z,21.38
2023-04-30T02:54:05.097Z,19.98
2023-04-30T02:56:31.623Z,19.92
2023-04-30T02:58:58.128Z,22.88
2023-04-30T03:01:24.761Z,18.13
2023-04-30T03:03:51.334Z,21.05
2023-04-30T03:06:17.843Z,20.88
2023-04-30T03:08:44.495Z,22.35
2023-04-30T03:11:11.041Z,20.98
2023-04-30T03:13:37.681Z,22.65
2023-04-30T03:16:04.849Z,21.75
2023-04-30T03:18:31.387Z,21.73
2023-04-30T03:20:58.360Z,22.65
2023-04-30T03:23:27.699Z,22.92
2023-04-30T03:25:54.185Z,21.55
2023-04-30T03:28:21.230Z,20.23
2023-04-30T03:30:47.753Z,20.67
2023-04-30T03:33:14.366Z,21.08
2023-04-30T03:35:41.010Z,20.35
2023-04-30T03:38:07.649Z,21.85
2023-04-30T03:40:34.191Z,25.55
2023-04-30T03:43:00.726Z,22.80
2023-04-30T03:45:27.277Z,22.92
2023-04-30T03:47:53.944Z,22.65
2023-04-30T03:50:20.737Z,21.88
2023-04-30T03:52:47.238Z,20.27
2023-04-30T03:55:13.762Z,23.27
2023-04-30T03:57:40.392Z,20.65
2023-04-30T04:00:07.667Z,21.83
2023-04-30T04:02:34.328Z,25.33
2023-04-30T04:05:00.966Z,21.60
2023-04-30T04:07:27.486Z,19.13
2023-04-30T04:09:54.106Z,19.52
2023-04-30T04:12:21.861Z,23.95
2023-04-30T04:14:48.362Z,19.48
2023-04-30T04:17:14.865Z,20.80
2023-04-30T04:19:41.399Z,20.60
2023-04-30T04:22:07.980Z,18.90
2023-04-30T04:24:34.464Z,20.42
2023-04-30T04:27:00.982Z,19.48
2023-04-30T04:29:27.503Z,19.30
2023-04-30T04:31:54.077Z,22.02
2023-04-30T04:34:20.765Z,24.05
2023-04-30T04:36:47.380Z,24.88
2023-04-30T04:39:14.038Z,21.70
2023-04-30T04:41:40.541Z,24.33
2023-04-30T04:44:07.092Z,21.60
2023-04-30T04:46:34.879Z,22.33
2023-04-30T04:49:01.396Z,20.35
2023-04-30T04:51:27.866Z,20.50
2023-04-30T04:53:54.359Z,19.08
2023-04-30T04:56:21.046Z,22.48
2023-04-30T04:58:47.860Z,19.73
2023-04-30T05:01:14.460Z,18.80
2023-04-30T05:03:41.093Z,17.33
2023-04-30T05:06:07.725Z,16.73
2023-04-30T05:08:34.306Z,17.60
2023-04-30T05:11:00.847Z,17.05
2023-04-30T05:13:27.345Z,17.50
2023-04-30T05:15:54.450Z,16.55
2023-04-30T05:18:21.192Z,16.67
2023-04-30T05:20:47.684Z,17.85
2023-04-30T05:23:14.187Z,20.35
2023-04-30T05:25:40.678Z,21.42
2023-04-30T05:28:07.174Z,18.73
2023-04-30T05:30:33.843Z,20.05
2023-04-30T05:33:00.424Z,20.85
2023-04-30T05:35:26.955Z,23.55
2023-04-30T05:37:53.532Z,23.42
2023-04-30T05:40:20.143Z,21.17
2023-04-30T05:42:46.640Z,27.83
2023-04-30T05:45:13.508Z,29.17
2023-04-30T05:47:40.755Z,30.77
2023-04-30T05:50:08.064Z,28.65
2023-04-30T05:52:34.594Z,30.70
2023-04-30T05:55:01.128Z,30.83
2023-04-30T05:57:27.726Z,36.25
2023-04-30T05:59:54.490Z,32.50
2023-04-30T06:02:21.285Z,31.08
2023-04-30T06:04:48.089Z,32.22
2023-04-30T06:07:14.628Z,35.45
2023-04-30T06:09:41.168Z,31.65
2023-04-30T06:12:07.707Z,30.27
2023-04-30T06:14:35.623Z,27.20
2023-04-30T06:17:02.154Z,26.92
2023-04-30T06:19:28.698Z,28.10
2023-04-30T06:21:55.234Z,25.80
2023-04-30T06:24:21.705Z,25.52
2023-04-30T06:26:48.226Z,23.17
2023-04-30T06:29:14.690Z,21.80
2023-04-30T06:31:41.270Z,19.50
2023-04-30T06:34:07.829Z,22.23
2023-04-30T06:36:34.316Z,24.67
2023-04-30T06:39:00.852Z,22.38
2023-04-30T06:41:27.463Z,27.02
2023-04-30T06:43:53.946Z,23.48
2023-04-30T06:46:20.502Z,23.15
2023-04-30T06:48:46.964Z,24.65
2023-04-30T06:51:13.521Z,21.45
2023-04-30T06:53:40.070Z,30.13
2023-04-30T06:56:06.796Z,23.05
2023-04-30T06:58:33.300Z,24.10
2023-04-30T07:00:59.804Z,22.75
2023-04-30T07:03:26.365Z,25.23
2023-04-30T07:05:53.263Z,28.33
2023-04-30T07:08:19.785Z,25.50
2023-04-30T07:10:46.248Z,23.15
2023-04-30T07:13:12.745Z,21.35
2023-04-30T07:15:39.282Z,22.95
2023-04-30T07:18:05.828Z,20.55
2023-04-30T07:20:32.378Z,29.13
2023-04-30T07:22:58.915Z,22.08
2023-04-30T07:25:25.453Z,23.30
2023-04-30T07:27:52.339Z,25.05
2023-04-30T07:30:18.985Z,26.50
2023-04-30T07:32:45.590Z,25.75
2023-04-30T07:35:12.154Z,27.42
2023-04-30T07:37:40.998Z,27.17
2023-04-30T07:40:08.299Z,24.23
2023-04-30T07:42:34.854Z,22.20
2023-04-30T07:45:01.330Z,22.60
2023-04-30T07:47:28.008Z,26.52
2023-04-30T07:49:54.749Z,19.88
2023-04-30T07:52:21.401Z,25.23
2023-04-30T07:54:47.910Z,22.20
2023-04-30T07:57:14.416Z,23.67
2023-04-30T07:59:40.963Z,23.17
2023-04-30T08:02:08.889Z,20.65
2023-04-30T08:04:35.697Z,24.20
2023-04-30T08:07:02.218Z,19.23
2023-04-30T08:09:28.836Z,20.83
2023-04-30T08:11:55.331Z,17.63
2023-04-30T08:14:22.181Z,18.15
2023-04-30T08:16:48.710Z,16.98
2023-04-30T08:19:15.217Z,19.17
2023-04-30T08:21:41.755Z,18.60
2023-04-30T08:24:08.265Z,15.27
2023-04-30T08:26:34.727Z,17.65
2023-04-30T08:29:01.328Z,17.77
2023-04-30T08:31:27.938Z,18.00
2023-04-30T08:33:54.499Z,20.20
2023-04-30T08:36:21.010Z,17.98
2023-04-30T08:38:47.495Z,61.92
2023-04-30T08:41:14.860Z,21.88
2023-04-30T08:43:43.395Z,16.52
2023-04-30T08:46:11.935Z,17.25
2023-04-30T08:48:39.217Z,18.25
2023-04-30T08:51:06.339Z,19.38
2023-04-30T08:53:37.013Z,17.08
2023-04-30T08:56:04.388Z,16.50
2023-04-30T08:58:31.114Z,21.15
2023-04-30T09:00:59.213Z,16.45
2023-04-30T09:03:26.157Z,16.17
2023-04-30T09:05:52.730Z,15.57
2023-04-30T09:08:39.706Z,17.55
2023-04-30T09:11:27.145Z,15.32
2023-04-30T09:13:56.396Z,16.25
2023-04-30T09:16:24.628Z,16.52
2023-04-30T09:18:51.747Z,13.20
2023-04-30T09:21:36.867Z,13.60
2023-04-30T09:24:05.083Z,11.27
2023-04-30T09:26:32.585Z,12.57
2023-04-30T09:28:59.906Z,13.63
2023-04-30T09:31:27.427Z,11.10
2023-04-30T09:33:54.227Z,11.52
2023-04-30T09:36:20.943Z,12.52
2023-04-30T09:38:47.728Z,11.60
2023-04-30T09:41:28.914Z,11.45
2023-04-30T09:43:56.170Z,13.63
2023-04-30T09:46:30.790Z,10.25
2023-04-30T09:49:02.591Z,10.10
2023-04-30T09:51:29.494Z,10.88
2023-04-30T09:53:56.058Z,10.32
2023-04-30T09:56:25.100Z,10.98
2023-04-30T09:58:56.260Z,12.25
2023-04-30T10:01:26.285Z,12.60
2023-04-30T10:03:53.575Z,8.07
2023-04-30T10:06:24.206Z,8.52
2023-04-30T10:08:55.998Z,8.60
2023-04-30T10:11:26.634Z,10.90
2023-04-30T10:14:00.788Z,10.82
2023-04-30T10:17:01.208Z,9.55
2023-04-30T10:19:33.695Z,11.82
2023-04-30T10:22:01.608Z,8.43
2023-04-30T10:24:28.680Z,10.65
2023-04-30T10:26:55.374Z,10.70
2023-04-30T10:29:21.908Z,10.07
2023-04-30T10:31:49.771Z,11.07
2023-04-30T10:34:31.920Z,12.85
2023-04-30T10:37:04.424Z,10.05
2023-04-30T10:39:32.577Z,10.43
2023-04-30T10:42:03.806Z,12.35
2023-04-30T10:44:34.722Z,8.40
2023-04-30T10:47:02.108Z,8.75
2023-04-30T10:49:29.255Z,8.07
2023-04-30T10:51:59.702Z,7.88
2023-04-30T10:54:35.036Z,9.77
2023-04-30T10:57:15.808Z,7.45
2023-04-30T10:59:53.093Z,8.77
2023-04-30T11:02:20.148Z,7.40
2023-04-30T11:05:12.842Z,7.40
2023-04-30T11:07:52.420Z,8.48
2023-04-30T11:10:23.893Z,8.90
2023-04-30T11:12:52.692Z,8.38
2023-04-30T11:15:21.411Z,8.90
2023-04-30T11:17:49.160Z,8.55
2023-04-30T11:20:24.144Z,8.25
2023-04-30T11:23:17.443Z,7.65
2023-04-30T11:25:54.581Z,8.38
2023-04-30T11:28:25.515Z,8.38
2023-04-30T11:30:57.260Z,8.13
2023-04-30T11:33:27.190Z,7.18
2023-04-30T11:35:55.791Z,6.38
2023-04-30T11:38:35.335Z,7.38
2023-04-30T11:41:03.375Z,10.48
2023-04-30T11:43:34.502Z,5.88
2023-04-30T11:46:08.272Z,5.85
2023-04-30T11:48:37.027Z,6.00
2023-04-30T11:51:18.124Z,7.22
2023-04-30T11:56:20.574Z,7.68
2023-04-30T11:58:47.967Z,6.45
2023-04-30T12:01:15.241Z,7.00
2023-04-30T12:03:47.183Z,6.68
2023-04-30T12:06:29.884Z,5.85
2023-04-30T12:08:57.864Z,7.28
2023-04-30T12:11:26.883Z,6.45
2023-04-30T12:14:00.847Z,6.07
2023-04-30T12:16:38.397Z,6.53
2023-04-30T12:19:05.269Z,6.18
2023-04-30T12:21:32.518Z,6.35
2023-04-30T12:24:00.420Z,5.85
2023-04-30T12:26:37.555Z,6.53
2023-04-30T12:29:05.428Z,6.20
2023-04-30T12:31:33.019Z,5.43
2023-04-30T12:34:13.642Z,6.57
2023-04-30T12:36:41.589Z,6.05
2023-04-30T12:39:16.258Z,7.05
2023-04-30T12:41:45.247Z,7.20
2023-04-30T12:44:19.840Z,7.40
2023-04-30T12:46:47.904Z,5.90
2023-04-30T12:49:28.835Z,5.30
2023-04-30T12:52:12.620Z,6.78
2023-04-30T12:54:39.696Z,5.25
2023-04-30T12:57:11.134Z,4.93
2023-04-30T12:59:58.131Z,5.72
2023-04-30T13:02:26.963Z,4.70
2023-04-30T13:04:54.117Z,5.82
2023-04-30T13:07:20.701Z,4.70
2023-04-30T13:09:47.578Z,5.32
2023-04-30T13:12:14.086Z,4.97
2023-04-30T13:14:40.658Z,4.55
2023-04-30T13:17:08.338Z,6.30
2023-04-30T13:19:35.057Z,5.50
2023-04-30T13:22:03.061Z,4.57
2023-04-30T13:24:29.530Z,5.13
2023-04-30T13:26:57.495Z,6.45
2023-04-30T13:29:24.209Z,4.45
2023-04-30T13:31:50.751Z,6.05
2023-04-30T13:34:17.269Z,5.55
2023-04-30T13:36:44.015Z,5.80
2023-04-30T13:39:10.492Z,4.95
2023-04-30T13:41:37.102Z,4.55
2023-04-30T13:44:03.644Z,3.63
2023-04-30T13:46:30.249Z,3.42
2023-04-30T13:48:56.780Z,4.03
2023-04-30T13:51:23.389Z,4.57
2023-04-30T13:53:49.902Z,6.03
2023-04-30T13:56:16.422Z,7.13
2023-04-30T13:58:45.710Z,5.68
2023-04-30T14:01:12.336Z,4.70
2023-04-30T14:03:38.909Z,4.57
2023-04-30T14:06:05.607Z,4.72
2023-04-30T14:08:32.122Z,5.05
2023-04-30T14:10:58.839Z,4.57
2023-04-30T14:13:25.359Z,4.78
2023-04-30T14:15:51.895Z,4.15
2023-04-30T14:18:18.436Z,4.80
2023-04-30T14:20:44.942Z,3.90
2023-04-30T14:23:11.434Z,18.02
2023-04-30T14:25:38.095Z,4.50
2023-04-30T14:28:04.738Z,5.50
2023-04-30T14:30:31.364Z,4.63
2023-04-30T14:32:57.886Z,5.57
2023-04-30T14:35:24.501Z,6.35
2023-04-30T14:37:51.016Z,6.18
2023-04-30T14:40:17.500Z,7.57
2023-04-30T14:42:43.980Z,5.25
2023-04-30T14:45:10.875Z,12.60
2023-04-30T14:47:37.738Z,4.82
2023-04-30T14:50:04.640Z,6.50
2023-04-30T14:52:31.274Z,5.03
2023-04-30T14:54:57.774Z,19.95
2023-04-30T14:57:24.742Z,10.93
2023-04-30T14:59:51.266Z,6.78
2023-04-30T15:02:17.822Z,4.47
2023-04-30T15:04:47.044Z,4.65
2023-04-30T15:07:13.720Z,3.95
2023-04-30T15:09:41.536Z,3.75
2023-04-30T15:12:08.053Z,4.50
2023-04-30T15:14:34.533Z,11.02
2023-04-30T15:17:01.134Z,5.03
2023-04-30T15:19:27.654Z,7.40
2023-04-30T15:21:54.155Z,4.78
2023-04-30T15:24:20.987Z,3.80
2023-04-30T15:26:47.569Z,4.53
2023-04-30T15:29:14.105Z,4.82
2023-04-30T15:31:40.674Z,5.28
2023-04-30T15:34:07.207Z,5.25
2023-04-30T15:36:33.698Z,5.30
2023-04-30T15:39:00.202Z,3.78
2023-04-30T15:41:26.735Z,3.92
2023-04-30T15:43:53.283Z,4.15
2023-04-30T15:46:19.949Z,3.53
2023-04-30T15:48:46.448Z,3.95
2023-04-30T15:51:13.049Z,3.42
2023-04-30T15:53:39.549Z,6.00
2023-04-30T15:56:06.186Z,4.20
2023-04-30T15:58:32.795Z,3.60
2023-04-30T16:00:59.314Z,4.15
2023-04-30T16:03:25.868Z,5.63
2023-04-30T16:05:52.656Z,3.13
2023-04-30T16:08:19.373Z,4.13
2023-04-30T16:10:45.970Z,3.15
2023-04-30T16:13:12.491Z,4.13
2023-04-30T16:15:38.985Z,5.53
2023-04-30T16:18:05.721Z,3.05
2023-04-30T16:20:32.463Z,3.17
2023-04-30T16:22:59.050Z,3.80
2023-04-30T16:25:26.965Z,3.42
2023-04-30T16:27:53.513Z,4.35
2023-04-30T16:30:20.111Z,3.38
2023-04-30T16:32:46.583Z,3.10
2023-04-30T16:35:13.464Z,3.65
2023-04-30T16:37:40.102Z,4.00
2023-04-30T16:40:07.165Z,4.03
2023-04-30T16:42:35.376Z,3.10
2023-04-30T16:45:03.551Z,3.72
2023-04-30T16:47:30.114Z,3.20
2023-04-30T16:49:57.198Z,3.17
2023-04-30T16:52:24.005Z,2.47
2023-04-30T16:54:50.475Z,3.17
2023-04-30T16:57:16.928Z,3.45
2023-04-30T16:59:43.486Z,2.92
2023-04-30T17:02:10.118Z,4.57
2023-04-30T17:04:36.708Z,2.97
2023-04-30T17:07:03.210Z,4.47
2023-04-30T17:09:29.864Z,2.90
2023-04-30T17:11:57.733Z,3.70
2023-04-30T17:14:24.279Z,4.35
2023-04-30T17:16:50.744Z,3.53
2023-04-30T17:19:17.262Z,4.18
2023-04-30T17:21:44.332Z,3.30
2023-04-30T17:24:10.862Z,3.60
2023-04-30T17:26:37.458Z,5.03
2023-04-30T17:29:03.947Z,5.20
2023-04-30T17:31:30.682Z,4.47
2023-04-30T17:33:57.255Z,2.95
2023-04-30T17:36:23.787Z,5.80
2023-04-30T17:38:50.270Z,2.92
2023-04-30T17:41:18.004Z,2.38
2023-04-30T17:43:44.728Z,3.70
2023-04-30T17:46:11.273Z,5.03
2023-04-30T17:48:37.890Z,3.22
2023-04-30T17:51:04.430Z,5.28
2023-04-30T17:53:31.438Z,4.28
2023-04-30T17:55:57.911Z,3.53
2023-04-30T17:58:24.609Z,3.20
2023-04-30T18:00:51.216Z,3.97
2023-04-30T18:03:17.834Z,4.32
2023-04-30T18:05:44.396Z,3.25
2023-04-30T18:08:10.895Z,4.07
2023-04-30T18:10:37.414Z,5.25
2023-04-30T18:13:03.904Z,3.90
2023-04-30T18:15:30.436Z,4.50
2023-04-30T18:17:56.973Z,3.47
2023-04-30T18:20:23.517Z,3.05
2023-04-30T18:22:50.092Z,3.33
2023-04-30T18:25:17.658Z,4.70
2023-04-30T18:27:44.140Z,3.60
2023-04-30T18:30:11.236Z,4.60
2023-04-30T18:32:37.765Z,4.80
2023-04-30T18:35:04.686Z,6.20
2023-04-30T18:37:31.473Z,4.28
2023-04-30T18:39:58.133Z,5.07
2023-04-30T18:42:24.791Z,3.42
2023-04-30T18:44:51.337Z,3.63
2023-04-30T18:47:20.790Z,3.50
2023-04-30T18:49:47.338Z,2.72
2023-04-30T18:52:13.827Z,4.13
2023-04-30T18:54:40.398Z,3.25
2023-04-30T18:57:06.881Z,2.40
2023-04-30T18:59:33.437Z,3.28
2023-04-30T19:02:00.012Z,3.13
2023-04-30T19:04:29.120Z,3.03
2023-04-30T19:06:55.834Z,4.18
2023-04-30T19:09:24.944Z,2.88
2023-04-30T19:11:51.759Z,4.05
2023-04-30T19:14:18.239Z,3.40
2023-04-30T19:16:44.809Z,4.20
2023-04-30T19:19:11.898Z,4.32
2023-04-30T19:21:38.544Z,2.60
2023-04-30T19:24:05.095Z,3.53
2023-04-30T19:26:32.455Z,3.22
2023-04-30T19:28:58.923Z,2.85
2023-04-30T19:31:25.762Z,2.75
2023-04-30T19:33:52.368Z,5.18
2023-04-30T19:36:19.015Z,2.95
2023-04-30T19:38:46.021Z,3.72
2023-04-30T19:41:12.543Z,3.97
2023-04-30T19:43:39.221Z,5.15
2023-04-30T19:46:05.766Z,4.65
2023-04-30T19:48:32.297Z,3.55
2023-04-30T19:50:58.827Z,4.63
2023-04-30T19:53:25.323Z,2.85
2023-04-30T19:55:51.897Z,5.78
2023-04-30T19:58:18.636Z,3.72
2023-04-30T20:00:46.796Z,3.08
2023-04-30T20:03:14.767Z,2.90
2023-04-30T20:05:41.675Z,3.40
2023-04-30T20:08:09.088Z,3.95
2023-04-30T20:10:38.354Z,4.30
2023-04-30T20:13:06.393Z,3.35
2023-04-30T20:15:34.993Z,3.15
2023-04-30T20:18:01.646Z,3.35
2023-04-30T20:20:29.238Z,3.10
2023-04-30T20:22:56.326Z,3.85
2023-04-30T20:25:24.997Z,3.15
2023-04-30T20:27:51.743Z,4.00
2023-04-30T20:30:18.471Z,3.90
2023-04-30T20:32:45.178Z,4.22
2023-04-30T20:35:11.689Z,5.30
2023-04-30T20:37:38.202Z,5.07
2023-04-30T20:40:05.094Z,2.70
2023-04-30T20:42:32.531Z,3.20
2023-04-30T20:45:03.897Z,4.00
2023-04-30T20:47:31.885Z,3.38
2023-04-30T20:49:59.449Z,6.05
2023-04-30T21:14:17.150Z,4.20
2023-04-30T21:23:36.931Z,3.60
2023-04-30T21:26:04.579Z,4.70
2023-04-30T21:28:32.506Z,4.30
2023-04-30T21:31:07.971Z,5.65
2023-04-30T21:33:38.204Z,4.35
2023-04-30T21:36:05.496Z,4.30
2023-04-30T21:38:32.067Z,3.03
2023-04-30T21:41:00.828Z,3.05
2023-04-30T21:43:27.312Z,4.82
2023-04-30T21:45:53.897Z,4.43
2023-04-30T21:48:20.711Z,3.78
2023-04-30T21:50:48.424Z,3.05
2023-04-30T21:53:16.351Z,3.90
2023-04-30T21:55:42.949Z,6.82
2023-04-30T21:58:09.509Z,3.30
2023-04-30T22:00:36.151Z,5.35
2023-04-30T22:03:02.656Z,6.60
2023-04-30T22:05:29.184Z,6.03
2023-04-30T22:07:55.724Z,4.45
2023-04-30T22:10:22.202Z,5.93
2023-04-30T22:12:48.765Z,6.90
2023-04-30T22:15:15.521Z,4.85
2023-04-30T22:17:42.118Z,6.03
2023-04-30T22:20:09.273Z,4.47
2023-04-30T22:22:35.857Z,6.40
2023-04-30T22:25:02.469Z,4.35
2023-04-30T22:27:29.005Z,4.85
2023-04-30T22:29:55.703Z,4.68
2023-04-30T22:32:22.259Z,5.30
2023-04-30T22:34:48.725Z,6.80
2023-04-30T22:37:15.200Z,6.38
2023-04-30T22:39:41.677Z,5.07
2023-04-30T22:42:11.155Z,5.50
2023-04-30T22:44:37.822Z,5.63
2023-04-30T22:47:04.679Z,5.10
2023-04-30T22:49:32.238Z,4.60
2023-04-30T22:51:59.546Z,6.15
2023-04-30T22:54:26.317Z,7.10
2023-04-30T22:56:52.925Z,4.47
2023-04-30T22:59:19.530Z,5.13
2023-04-30T23:01:46.046Z,6.00
2023-04-30T23:04:12.663Z,4.63
2023-04-30T23:06:39.265Z,6.20
2023-04-30T23:09:05.773Z,5.18
2023-04-30T23:11:32.462Z,4.05
2023-04-30T23:13:59.043Z,5.82
2023-04-30T23:16:25.663Z,5.35
2023-04-30T23:18:52.223Z,4.68
2023-04-30T23:21:18.760Z,5.00
2023-04-30T23:23:45.244Z,5.50
2023-04-30T23:26:11.758Z,5.15
2023-04-30T23:28:38.296Z,5.97
2023-04-30T23:31:04.777Z,5.35
2023-04-30T23:36:14.768Z,7.00
2023-04-30T23:38:41.324Z,4.57
2023-04-30T23:41:07.871Z,6.20
2023-04-30T23:43:34.470Z,7.32
2023-04-30T23:46:01.436Z,6.63
2023-04-30T23:48:28.145Z,6.32
2023-04-30T23:50:58.945Z,6.05
2023-04-30T23:53:25.603Z,6.22
2023-04-30T23:55:52.430Z,5.90
2023-04-30T23:58:18.960Z,6.90
